sensor_id;sensor_type;location;lat;lon;timestamp;pressure;altitude;pressure_sealevel;temperature;humidity
79118;BME280;68523;51.336;-0.846;2023-04-03T00:04:04;102169.71;;;2.9;91.3
79118;BME280;68523;51.336;-0.846;2023-04-03T00:09:34;102167.85;;;2.7;91.8
79118;BME280;68523;51.336;-0.846;2023-04-03T00:14:36;102172.81;;;2.7;92.1
79118;BME280;68523;51.336;-0.846;2023-04-03T00:20:06;102173.41;;;2.9;91.4
79118;BME280;68523;51.336;-0.846;2023-04-03T00:25:36;102169.80;;;2.9;91.3
79118;BME280;68523;51.336;-0.846;2023-04-03T00:31:05;102176.63;;;2.7;91.7
79118;BME280;68523;51.336;-0.846;2023-04-03T00:36:35;102167.56;;;2.8;91.6
79118;BME280;68523;51.336;-0.846;2023-04-03T00:41:37;102169.07;;;2.7;91.4
79118;BME280;68523;51.336;-0.846;2023-04-03T00:47:02;102167.62;;;2.7;91.6
79118;BME280;68523;51.336;-0.846;2023-04-03T00:52:08;102171.15;;;2.6;92.2
79118;BME280;68523;51.336;-0.846;2023-04-03T00:57:33;102173.02;;;2.7;91.3
79118;BME280;68523;51.336;-0.846;2023-04-03T01:02:36;102172.45;;;2.5;92.2
79118;BME280;68523;51.336;-0.846;2023-04-03T01:08:06;102173.49;;;2.5;92.0
79118;BME280;68523;51.336;-0.846;2023-04-03T01:13:35;102164.69;;;2.3;92.8
79118;BME280;68523;51.336;-0.846;2023-04-03T01:19:08;102168.74;;;2.2;92.5
79118;BME280;68523;51.336;-0.846;2023-04-03T01:24:36;102169.55;;;2.2;92.1
79118;BME280;68523;51.336;-0.846;2023-04-03T01:29:34;102167.07;;;2.2;93.0
79118;BME280;68523;51.336;-0.846;2023-04-03T01:34:37;102163.94;;;2.0;92.6
79118;BME280;68523;51.336;-0.846;2023-04-03T01:40:07;102159.28;;;1.9;92.3
79118;BME280;68523;51.336;-0.846;2023-04-03T01:45:37;102159.82;;;1.6;93.2
79118;BME280;68523;51.336;-0.846;2023-04-03T01:51:06;102151.79;;;1.4;95.1
79118;BME280;68523;51.336;-0.846;2023-04-03T01:56:35;102155.47;;;1.4;95.4
79118;BME280;68523;51.336;-0.846;2023-04-03T02:01:38;102155.62;;;1.5;95.2
79118;BME280;68523;51.336;-0.846;2023-04-03T02:07:02;102155.71;;;1.3;95.7
79118;BME280;68523;51.336;-0.846;2023-04-03T02:12:05;102150.23;;;1.3;96.2
79118;BME280;68523;51.336;-0.846;2023-04-03T02:17:35;102143.00;;;1.5;94.9
79118;BME280;68523;51.336;-0.846;2023-04-03T02:22:38;102142.56;;;1.3;94.8
79118;BME280;68523;51.336;-0.846;2023-04-03T02:28:02;102141.50;;;1.3;94.6
79118;BME280;68523;51.336;-0.846;2023-04-03T02:33:04;102134.70;;;1.0;94.5
79118;BME280;68523;51.336;-0.846;2023-04-03T02:38:34;102135.80;;;0.6;95.3
79118;BME280;68523;51.336;-0.846;2023-04-03T02:43:37;102138.32;;;0.7;94.9
79118;BME280;68523;51.336;-0.846;2023-04-03T02:49:01;102134.88;;;0.5;95.1
79118;BME280;68523;51.336;-0.846;2023-04-03T02:54:04;102137.29;;;0.6;95.7
79118;BME280;68523;51.336;-0.846;2023-04-03T02:59:33;102137.95;;;0.7;96.0
79118;BME280;68523;51.336;-0.846;2023-04-03T03:04:36;102132.90;;;0.8;95.3
79118;BME280;68523;51.336;-0.846;2023-04-03T03:10:06;102131.78;;;0.5;95.7
79118;BME280;68523;51.336;-0.846;2023-04-03T03:15:36;102129.56;;;0.4;96.5
79118;BME280;68523;51.336;-0.846;2023-04-03T03:21:05;102122.88;;;0.4;96.5
79118;BME280;68523;51.336;-0.846;2023-04-03T03:26:34;102118.04;;;0.2;97.6
79118;BME280;68523;51.336;-0.846;2023-04-03T03:31:37;102116.28;;;0.1;98.3
79118;BME280;68523;51.336;-0.846;2023-04-03T03:37:01;102118.70;;;-0.2;99.0
79118;BME280;68523;51.336;-0.846;2023-04-03T03:42:04;102114.39;;;-0.1;99.5
79118;BME280;68523;51.336;-0.846;2023-04-03T03:47:34;102114.69;;;0.2;99.3
79118;BME280;68523;51.336;-0.846;2023-04-03T03:52:37;102114.54;;;0.4;98.4
79118;BME280;68523;51.336;-0.846;2023-04-03T03:58:06;102113.84;;;0.6;97.5
79118;BME280;68523;51.336;-0.846;2023-04-03T04:03:35;102111.69;;;0.6;96.5
79118;BME280;68523;51.336;-0.846;2023-04-03T04:09:05;102118.61;;;0.5;97.7
79118;BME280;68523;51.336;-0.846;2023-04-03T04:14:34;102115.44;;;0.7;98.0
79118;BME280;68523;51.336;-0.846;2023-04-03T04:19:36;102115.91;;;0.9;96.4
79118;BME280;68523;51.336;-0.846;2023-04-03T04:25:06;102115.64;;;0.7;95.8
79118;BME280;68523;51.336;-0.846;2023-04-03T04:30:35;102110.94;;;0.4;97.4
79118;BME280;68523;51.336;-0.846;2023-04-03T04:36:05;102106.67;;;0.7;96.1
79118;BME280;68523;51.336;-0.846;2023-04-03T04:41:34;102109.08;;;0.4;97.8
79118;BME280;68523;51.336;-0.846;2023-04-03T04:46:37;102103.87;;;0.3;97.8
79118;BME280;68523;51.336;-0.846;2023-04-03T04:52:01;102103.50;;;0.4;97.9
79118;BME280;68523;51.336;-0.846;2023-04-03T04:57:04;102102.14;;;0.7;96.0
79118;BME280;68523;51.336;-0.846;2023-04-03T05:02:34;102103.02;;;0.6;95.0
79118;BME280;68523;51.336;-0.846;2023-04-03T05:07:36;102106.74;;;0.6;95.0
79118;BME280;68523;51.336;-0.846;2023-04-03T05:13:06;102109.53;;;0.5;95.2
79118;BME280;68523;51.336;-0.846;2023-04-03T05:18:35;102108.51;;;0.5;95.0
79118;BME280;68523;51.336;-0.846;2023-04-03T05:23:38;102107.68;;;0.5;94.7
79118;BME280;68523;51.336;-0.846;2023-04-03T05:29:02;102108.48;;;0.5;94.4
79118;BME280;68523;51.336;-0.846;2023-04-03T05:34:04;102111.99;;;0.5;94.9
79118;BME280;68523;51.336;-0.846;2023-04-03T05:39:34;102117.14;;;0.7;95.2
79118;BME280;68523;51.336;-0.846;2023-04-03T05:44:37;102127.05;;;0.8;95.5
79118;BME280;68523;51.336;-0.846;2023-04-03T05:50:07;102131.05;;;0.9;96.5
79118;BME280;68523;51.336;-0.846;2023-04-03T05:55:36;102128.83;;;1.2;95.9
79118;BME280;68523;51.336;-0.846;2023-04-03T06:01:05;102130.41;;;0.9;97.6
79118;BME280;68523;51.336;-0.846;2023-04-03T06:06:46;102136.23;;;1.2;98.0
79118;BME280;68523;51.336;-0.846;2023-04-03T06:12:05;102130.35;;;1.5;97.4
79118;BME280;68523;51.336;-0.846;2023-04-03T06:17:35;102137.88;;;1.8;96.1
79118;BME280;68523;51.336;-0.846;2023-04-03T06:22:38;102142.34;;;1.9;95.7
79118;BME280;68523;51.336;-0.846;2023-04-03T06:28:02;102143.29;;;1.8;96.3
79118;BME280;68523;51.336;-0.846;2023-04-03T06:33:04;102143.58;;;2.2;96.5
79118;BME280;68523;51.336;-0.846;2023-04-03T06:38:34;102143.31;;;2.4;95.9
79118;BME280;68523;51.336;-0.846;2023-04-03T06:43:37;102143.71;;;2.3;95.4
79118;BME280;68523;51.336;-0.846;2023-04-03T06:49:06;102140.55;;;2.7;94.0
79118;BME280;68523;51.336;-0.846;2023-04-03T06:54:35;102134.14;;;3.5;93.5
79118;BME280;68523;51.336;-0.846;2023-04-03T07:00:06;102131.92;;;3.7;91.6
79118;BME280;68523;51.336;-0.846;2023-04-03T07:05:35;102130.51;;;4.0;90.9
79118;BME280;68523;51.336;-0.846;2023-04-03T07:11:05;102126.08;;;4.7;88.0
79118;BME280;68523;51.336;-0.846;2023-04-03T07:16:35;102125.76;;;4.3;88.2
79118;BME280;68523;51.336;-0.846;2023-04-03T07:21:38;102120.14;;;4.4;87.2
79118;BME280;68523;51.336;-0.846;2023-04-03T07:27:02;102125.25;;;4.5;87.8
79118;BME280;68523;51.336;-0.846;2023-04-03T07:32:05;102127.15;;;5.0;85.8
79118;BME280;68523;51.336;-0.846;2023-04-03T07:37:35;102130.62;;;5.5;82.9
79118;BME280;68523;51.336;-0.846;2023-04-03T07:42:37;102133.27;;;6.4;80.4
79118;BME280;68523;51.336;-0.846;2023-04-03T07:48:01;102134.58;;;6.7;79.0
79118;BME280;68523;51.336;-0.846;2023-04-03T07:53:04;102136.45;;;6.7;77.3
79118;BME280;68523;51.336;-0.846;2023-04-03T07:58:33;102138.97;;;7.2;76.0
79118;BME280;68523;51.336;-0.846;2023-04-03T08:03:36;102139.49;;;7.3;76.1
79118;BME280;68523;51.336;-0.846;2023-04-03T08:09:05;102133.57;;;8.6;73.0
79118;BME280;68523;51.336;-0.846;2023-04-03T08:14:34;102132.75;;;8.8;71.9
79118;BME280;68523;51.336;-0.846;2023-04-03T08:19:37;102133.57;;;7.6;75.1
79118;BME280;68523;51.336;-0.846;2023-04-03T08:25:02;102134.97;;;7.5;76.6
79118;BME280;68523;51.336;-0.846;2023-04-03T08:30:06;102130.60;;;7.9;75.2
79118;BME280;68523;51.336;-0.846;2023-04-03T08:35:39;102126.84;;;7.5;76.2
79118;BME280;68523;51.336;-0.846;2023-04-03T08:40:37;102128.36;;;7.3;78.4
79118;BME280;68523;51.336;-0.846;2023-04-03T08:46:05;102125.23;;;8.3;76.0
79118;BME280;68523;51.336;-0.846;2023-04-03T08:51:04;102126.65;;;8.5;74.9
79118;BME280;68523;51.336;-0.846;2023-04-03T08:56:33;102127.09;;;8.5;75.8
79118;BME280;68523;51.336;-0.846;2023-04-03T09:01:39;102124.51;;;9.1;74.0
79118;BME280;68523;51.336;-0.846;2023-04-03T09:06:38;102126.16;;;8.8;75.2
79118;BME280;68523;51.336;-0.846;2023-04-03T09:12:11;102125.75;;;8.6;76.0
79118;BME280;68523;51.336;-0.846;2023-04-03T09:17:12;102120.82;;;8.8;75.0
79118;BME280;68523;51.336;-0.846;2023-04-03T09:22:34;102122.64;;;8.7;75.7
79118;BME280;68523;51.336;-0.846;2023-04-03T09:27:34;102118.82;;;8.5;74.3
79118;BME280;68523;51.336;-0.846;2023-04-03T09:32:37;102124.88;;;8.9;74.6
79118;BME280;68523;51.336;-0.846;2023-04-03T09:38:16;102123.21;;;9.2;73.2
79118;BME280;68523;51.336;-0.846;2023-04-03T09:43:19;102114.36;;;9.7;70.4
79118;BME280;68523;51.336;-0.846;2023-04-03T09:48:08;102111.93;;;9.1;70.8
79118;BME280;68523;51.336;-0.846;2023-04-03T09:53:40;102111.32;;;9.7;72.5
79118;BME280;68523;51.336;-0.846;2023-04-03T09:58:40;102105.55;;;10.5;64.7
79118;BME280;68523;51.336;-0.846;2023-04-03T10:03:38;102109.32;;;10.5;64.2
79118;BME280;68523;51.336;-0.846;2023-04-03T10:09:04;102109.01;;;9.7;65.7
79118;BME280;68523;51.336;-0.846;2023-04-03T10:14:03;102108.38;;;11.0;64.0
79118;BME280;68523;51.336;-0.846;2023-04-03T10:19:29;102113.22;;;11.5;62.0
79118;BME280;68523;51.336;-0.846;2023-04-03T10:24:39;102118.43;;;9.9;65.0
79118;BME280;68523;51.336;-0.846;2023-04-03T10:30:19;102117.86;;;9.8;64.1
79118;BME280;68523;51.336;-0.846;2023-04-03T10:35:44;102113.87;;;10.1;66.0
79118;BME280;68523;51.336;-0.846;2023-04-03T10:40:43;102110.92;;;10.1;64.1
79118;BME280;68523;51.336;-0.846;2023-04-03T10:45:52;102098.60;;;9.3;65.3
79118;BME280;68523;51.336;-0.846;2023-04-03T10:51:10;102098.27;;;9.5;66.4
79118;BME280;68523;51.336;-0.846;2023-04-03T10:56:12;102086.57;;;9.5;66.3
79118;BME280;68523;51.336;-0.846;2023-04-03T11:01:37;102088.20;;;9.0;66.0
79118;BME280;68523;51.336;-0.846;2023-04-03T11:06:37;102085.08;;;11.1;62.6
79118;BME280;68523;51.336;-0.846;2023-04-03T11:11:39;102081.39;;;11.4;62.0
79118;BME280;68523;51.336;-0.846;2023-04-03T11:16:42;102084.89;;;11.1;61.9
79118;BME280;68523;51.336;-0.846;2023-04-03T11:22:08;102081.28;;;10.9;61.8
79118;BME280;68523;51.336;-0.846;2023-04-03T11:27:03;102071.90;;;10.0;61.7
79118;BME280;68523;51.336;-0.846;2023-04-03T11:32:10;102065.53;;;10.3;61.4
79118;BME280;68523;51.336;-0.846;2023-04-03T11:37:13;102064.12;;;11.1;62.7
79118;BME280;68523;51.336;-0.846;2023-04-03T11:42:37;102057.97;;;11.9;59.1
79118;BME280;68523;51.336;-0.846;2023-04-03T11:47:46;102058.52;;;10.8;61.6
79118;BME280;68523;51.336;-0.846;2023-04-03T11:53:29;102048.22;;;10.7;61.6
79118;BME280;68523;51.336;-0.846;2023-04-03T11:58:13;102038.02;;;10.2;61.1
79118;BME280;68523;51.336;-0.846;2023-04-03T12:08:44;102036.08;;;10.2;62.2
79118;BME280;68523;51.336;-0.846;2023-04-03T12:13:39;102020.74;;;11.9;59.7
79118;BME280;68523;51.336;-0.846;2023-04-03T12:18:44;102018.66;;;12.3;56.9
79118;BME280;68523;51.336;-0.846;2023-04-03T12:24:25;102013.02;;;12.2;56.4
79118;BME280;68523;51.336;-0.846;2023-04-03T12:29:35;102017.08;;;12.9;57.1
79118;BME280;68523;51.336;-0.846;2023-04-03T12:34:49;102006.44;;;11.9;54.5
79118;BME280;68523;51.336;-0.846;2023-04-03T12:39:48;102005.47;;;11.7;57.7
79118;BME280;68523;51.336;-0.846;2023-04-03T12:44:44;101997.02;;;11.9;56.1
79118;BME280;68523;51.336;-0.846;2023-04-03T12:50:21;101994.81;;;11.9;54.4
79118;BME280;68523;51.336;-0.846;2023-04-03T12:55:35;101987.60;;;11.8;53.5
79118;BME280;68523;51.336;-0.846;2023-04-03T13:00:38;101982.54;;;12.1;56.2
79118;BME280;68523;51.336;-0.846;2023-04-03T13:06:02;101976.97;;;12.0;56.3
79118;BME280;68523;51.336;-0.846;2023-04-03T13:11:36;101969.42;;;11.5;56.6
79118;BME280;68523;51.336;-0.846;2023-04-03T13:16:35;101971.37;;;12.6;56.9
79118;BME280;68523;51.336;-0.846;2023-04-03T13:22:07;101967.54;;;13.2;54.9
79118;BME280;68523;51.336;-0.846;2023-04-03T13:27:06;101964.58;;;12.4;53.2
79118;BME280;68523;51.336;-0.846;2023-04-03T13:32:36;101968.98;;;12.6;53.7
79118;BME280;68523;51.336;-0.846;2023-04-03T13:38:20;101954.06;;;12.6;54.2
79118;BME280;68523;51.336;-0.846;2023-04-03T13:43:37;101954.69;;;12.7;54.8
79118;BME280;68523;51.336;-0.846;2023-04-03T13:49:18;101939.64;;;13.3;52.2
79118;BME280;68523;51.336;-0.846;2023-04-03T13:54:17;101944.90;;;12.6;54.1
79118;BME280;68523;51.336;-0.846;2023-04-03T13:59:37;101939.96;;;12.9;50.8
79118;BME280;68523;51.336;-0.846;2023-04-03T14:05:07;101935.35;;;12.4;52.5
79118;BME280;68523;51.336;-0.846;2023-04-03T14:10:37;101926.71;;;13.4;50.2
79118;BME280;68523;51.336;-0.846;2023-04-03T14:16:01;101921.55;;;12.4;52.7
79118;BME280;68523;51.336;-0.846;2023-04-03T14:21:06;101916.67;;;12.6;51.6
79118;BME280;68523;51.336;-0.846;2023-04-03T14:26:36;101906.30;;;12.5;52.1
79118;BME280;68523;51.336;-0.846;2023-04-03T14:32:06;101906.25;;;13.1;49.8
79118;BME280;68523;51.336;-0.846;2023-04-03T14:37:35;101887.75;;;14.0;47.6
79118;BME280;68523;51.336;-0.846;2023-04-03T14:43:08;101887.25;;;12.7;50.0
79118;BME280;68523;51.336;-0.846;2023-04-03T14:48:10;101879.70;;;13.0;49.3
79118;BME280;68523;51.336;-0.846;2023-04-03T14:53:34;101872.30;;;13.0;49.1
79118;BME280;68523;51.336;-0.846;2023-04-03T14:58:36;101870.45;;;13.2;49.9
79118;BME280;68523;51.336;-0.846;2023-04-03T15:04:10;101864.19;;;12.9;48.2
79118;BME280;68523;51.336;-0.846;2023-04-03T15:09:36;101871.78;;;13.0;48.8
79118;BME280;68523;51.336;-0.846;2023-04-03T15:15:06;101863.97;;;13.1;47.9
79118;BME280;68523;51.336;-0.846;2023-04-03T15:20:36;101854.87;;;12.3;51.2
79118;BME280;68523;51.336;-0.846;2023-04-03T15:26:06;101851.99;;;12.0;49.7
79118;BME280;68523;51.336;-0.846;2023-04-03T15:31:35;101845.79;;;12.8;48.3
79118;BME280;68523;51.336;-0.846;2023-04-03T15:36:38;101848.39;;;12.8;50.2
79118;BME280;68523;51.336;-0.846;2023-04-03T15:42:01;101838.92;;;13.2;47.2
79118;BME280;68523;51.336;-0.846;2023-04-03T15:47:04;101839.75;;;12.7;48.5
79118;BME280;68523;51.336;-0.846;2023-04-03T15:52:34;101841.21;;;12.9;47.6
79118;BME280;68523;51.336;-0.846;2023-04-03T15:57:37;101844.32;;;12.8;47.6
79118;BME280;68523;51.336;-0.846;2023-04-03T16:03:09;101843.13;;;12.1;48.5
79118;BME280;68523;51.336;-0.846;2023-04-03T16:08:34;101838.18;;;11.7;48.8
79118;BME280;68523;51.336;-0.846;2023-04-03T16:13:36;101840.19;;;11.7;47.3
79118;BME280;68523;51.336;-0.846;2023-04-03T16:19:06;101835.83;;;11.6;47.4
79118;BME280;68523;51.336;-0.846;2023-04-03T16:24:35;101839.02;;;11.7;49.0
79118;BME280;68523;51.336;-0.846;2023-04-03T16:30:06;101840.07;;;12.0;48.8
79118;BME280;68523;51.336;-0.846;2023-04-03T16:35:36;101840.08;;;11.7;46.9
79118;BME280;68523;51.336;-0.846;2023-04-03T16:41:05;101834.43;;;11.7;47.2
79118;BME280;68523;51.336;-0.846;2023-04-03T16:46:35;101840.13;;;11.5;47.5
79118;BME280;68523;51.336;-0.846;2023-04-03T16:51:37;101840.76;;;11.4;46.0
79118;BME280;68523;51.336;-0.846;2023-04-03T16:57:02;101841.56;;;11.1;44.2
79118;BME280;68523;51.336;-0.846;2023-04-03T17:02:04;101846.34;;;11.2;43.8
79118;BME280;68523;51.336;-0.846;2023-04-03T17:07:34;101846.26;;;11.2;43.3
79118;BME280;68523;51.336;-0.846;2023-04-03T17:12:36;101841.68;;;10.9;43.5
79118;BME280;68523;51.336;-0.846;2023-04-03T17:18:07;101842.16;;;10.9;43.8
79118;BME280;68523;51.336;-0.846;2023-04-03T17:23:36;101848.21;;;11.4;42.9
79118;BME280;68523;51.336;-0.846;2023-04-03T17:29:02;101850.23;;;11.4;44.0
79118;BME280;68523;51.336;-0.846;2023-04-03T17:34:05;101854.09;;;10.5;45.2
79118;BME280;68523;51.336;-0.846;2023-04-03T17:39:35;101855.38;;;10.5;46.5
79118;BME280;68523;51.336;-0.846;2023-04-03T17:44:37;101852.26;;;10.3;49.1
79118;BME280;68523;51.336;-0.846;2023-04-03T17:50:02;101852.42;;;10.0;48.8
79118;BME280;68523;51.336;-0.846;2023-04-03T17:55:05;101851.54;;;10.1;48.5
79118;BME280;68523;51.336;-0.846;2023-04-03T18:00:35;101856.09;;;9.5;51.7
79118;BME280;68523;51.336;-0.846;2023-04-03T18:06:07;101855.35;;;8.8;56.2
79118;BME280;68523;51.336;-0.846;2023-04-03T18:11:37;101859.44;;;8.7;57.6
79118;BME280;68523;51.336;-0.846;2023-04-03T18:17:06;101868.66;;;8.4;59.3
79118;BME280;68523;51.336;-0.846;2023-04-03T18:22:35;101871.79;;;8.1;59.3
79118;BME280;68523;51.336;-0.846;2023-04-03T18:28:06;101864.39;;;7.8;56.4
79118;BME280;68523;51.336;-0.846;2023-04-03T18:33:35;101860.13;;;7.8;51.4
79118;BME280;68523;51.336;-0.846;2023-04-03T18:39:05;101855.35;;;7.5;50.2
79118;BME280;68523;51.336;-0.846;2023-04-03T18:44:35;101857.60;;;7.3;50.6
79118;BME280;68523;51.336;-0.846;2023-04-03T18:50:07;101858.38;;;7.0;51.5
79118;BME280;68523;51.336;-0.846;2023-04-03T18:55:36;101862.34;;;7.0;53.1
79118;BME280;68523;51.336;-0.846;2023-04-03T19:01:06;101866.10;;;6.7;54.6
79118;BME280;68523;51.336;-0.846;2023-04-03T19:06:36;101875.20;;;6.6;56.2
79118;BME280;68523;51.336;-0.846;2023-04-03T19:12:06;101877.58;;;6.6;57.3
79118;BME280;68523;51.336;-0.846;2023-04-03T19:17:36;101882.99;;;6.4;58.3
79118;BME280;68523;51.336;-0.846;2023-04-03T19:23:05;101890.06;;;6.1;60.1
79118;BME280;68523;51.336;-0.846;2023-04-03T19:28:34;101895.72;;;6.0;61.0
79118;BME280;68523;51.336;-0.846;2023-04-03T19:33:37;101893.51;;;5.8;62.2
79118;BME280;68523;51.336;-0.846;2023-04-03T19:39:01;101897.73;;;5.8;62.3
79118;BME280;68523;51.336;-0.846;2023-04-03T19:44:06;101903.33;;;5.9;61.8
79118;BME280;68523;51.336;-0.846;2023-04-03T19:49:35;101911.50;;;5.8;62.3
79118;BME280;68523;51.336;-0.846;2023-04-03T19:55:05;101917.22;;;5.6;62.9
79118;BME280;68523;51.336;-0.846;2023-04-03T20:00:35;101917.22;;;5.2;65.1
79118;BME280;68523;51.336;-0.846;2023-04-03T20:05:38;101918.92;;;5.2;65.9
79118;BME280;68523;51.336;-0.846;2023-04-03T20:11:02;101917.99;;;5.2;66.3
79118;BME280;68523;51.336;-0.846;2023-04-03T20:16:05;101921.00;;;5.0;67.2
79118;BME280;68523;51.336;-0.846;2023-04-03T20:21:35;101924.39;;;4.9;68.4
79118;BME280;68523;51.336;-0.846;2023-04-03T20:27:05;101937.04;;;4.8;69.2
79118;BME280;68523;51.336;-0.846;2023-04-03T20:32:35;101943.66;;;4.7;70.5
79118;BME280;68523;51.336;-0.846;2023-04-03T20:37:37;101942.10;;;4.6;71.3
79118;BME280;68523;51.336;-0.846;2023-04-03T20:43:01;101942.43;;;4.7;71.5
79118;BME280;68523;51.336;-0.846;2023-04-03T20:48:05;101939.66;;;4.4;72.6
79118;BME280;68523;51.336;-0.846;2023-04-03T20:53:34;101935.06;;;4.6;72.6
79118;BME280;68523;51.336;-0.846;2023-04-03T20:58:37;101937.67;;;4.5;73.1
79118;BME280;68523;51.336;-0.846;2023-04-03T21:04:08;101934.40;;;4.6;73.1
79118;BME280;68523;51.336;-0.846;2023-04-03T21:20:04;101931.22;;;4.3;75.2
79118;BME280;68523;51.336;-0.846;2023-04-03T21:25:34;101937.36;;;4.3;75.6
79118;BME280;68523;51.336;-0.846;2023-04-03T21:30:36;101940.85;;;4.2;75.8
79118;BME280;68523;51.336;-0.846;2023-04-03T21:36:06;101947.72;;;4.4;75.4
79118;BME280;68523;51.336;-0.846;2023-04-03T21:41:35;101955.05;;;4.3;75.4
79118;BME280;68523;51.336;-0.846;2023-04-03T21:46:37;101955.77;;;4.3;75.9
79118;BME280;68523;51.336;-0.846;2023-04-03T21:52:01;101948.91;;;4.0;77.5
79118;BME280;68523;51.336;-0.846;2023-04-03T21:57:04;101944.18;;;3.7;79.2
79118;BME280;68523;51.336;-0.846;2023-04-03T22:02:33;101944.01;;;3.7;80.4
79118;BME280;68523;51.336;-0.846;2023-04-03T22:07:35;101945.22;;;3.5;80.5
79118;BME280;68523;51.336;-0.846;2023-04-03T22:13:05;101946.52;;;3.4;81.2
79118;BME280;68523;51.336;-0.846;2023-04-03T22:18:35;101955.22;;;3.2;82.2
79118;BME280;68523;51.336;-0.846;2023-04-03T22:23:38;101961.55;;;3.1;82.6
79118;BME280;68523;51.336;-0.846;2023-04-03T22:29:02;101963.14;;;3.1;82.6
79118;BME280;68523;51.336;-0.846;2023-04-03T22:34:04;101967.19;;;2.7;83.9
79118;BME280;68523;51.336;-0.846;2023-04-03T22:39:34;101969.15;;;2.4;85.4
79118;BME280;68523;51.336;-0.846;2023-04-03T22:44:36;101965.64;;;2.1;86.9
79118;BME280;68523;51.336;-0.846;2023-04-03T22:50:06;101962.34;;;2.1;86.7
79118;BME280;68523;51.336;-0.846;2023-04-03T22:55:35;101965.45;;;2.2;86.0
79118;BME280;68523;51.336;-0.846;2023-04-03T23:01:07;101967.82;;;2.2;86.0
79118;BME280;68523;51.336;-0.846;2023-04-03T23:06:06;101961.42;;;1.9;86.9
79118;BME280;68523;51.336;-0.846;2023-04-03T23:11:35;101964.04;;;1.8;87.6
79118;BME280;68523;51.336;-0.846;2023-04-03T23:17:05;101961.68;;;1.7;88.7
79118;BME280;68523;51.336;-0.846;2023-04-03T23:22:34;101955.01;;;1.6;88.8
79118;BME280;68523;51.336;-0.846;2023-04-03T23:27:37;101950.59;;;1.7;88.3
79118;BME280;68523;51.336;-0.846;2023-04-03T23:33:06;101953.03;;;1.8;88.6
79118;BME280;68523;51.336;-0.846;2023-04-03T23:38:35;101960.69;;;2.0;87.4
79118;BME280;68523;51.336;-0.846;2023-04-03T23:44:05;101960.73;;;1.9;87.6
79118;BME280;68523;51.336;-0.846;2023-04-03T23:49:34;101962.08;;;1.8;87.3
79118;BME280;68523;51.336;-0.846;2023-04-03T23:54:37;101956.25;;;1.6;88.3
